Tiempo atmosférico en la estación meteorológica de Aragüés Del Puerto, Huesca (1120 m.)

Fecha
DESCASC
Temp. máxima en grados centígrados (hora)
DESCASC
Temp. mínima en grados centígrados (hora)
DESCASC
Temp. media en grados centígrados
DESCASC
Racha de viento máxima en m/sg (hora)
DESCASC
Velocidad máxima media en intervalos de 10 minutos(hora)
DESCASC
Precipitaciones diarias en mm
DESCASC
Precipitaciones de 00:00 a 06:00 en mm
DESCASC
Precipitaciones de 06:00 a 12:00 en mm
DESCASC
Precipitaciones de 12:00 a 18:00 en mm
DESCASC
Precipitaciones de 18:00 a 24:00 en mm
DESCASC
23-11-2017 16.1 (15:40) 9.2 (04:50) 12.7 6.39 (08:50) 3.89 (00:20) 0 0 0 0 0
22-11-2017 17.7 (13:00) 7.3 (06:40) 12.5 7.78 (07:00) 6.11 (05:10) 0 0 0 0 0
21-11-2017 17.5 (14:50) 4.3 (05:50) 10.9 5.83 (23:00) 4.72 (18:20) 0 0 0 0 0
20-11-2017 18.8 (13:40) 5.2 (06:10) 12 5.56 (14:30) 3.89 (14:50) 0 0 0 0 0
19-11-2017 17 (14:30) 2.2 (00:00) 9.6 4.72 (14:40) 2.78 (20:00) 0 0 0 0 0
18-11-2017 16.3 (14:50) 3.6 (00:00) 9.9 5.56 (18:50) 3.89 (18:50) 0 0 0 0 0
17-11-2017 19.2 (14:50) 5.9 (00:00) 12.6 5.83 (15:40) 3.33 (15:20) 0 0 0 0 0
16-11-2017 17 (15:10) 2.6 (00:00) 9.8 6.67 (19:00) 3.33 (18:40) 0 0 0 0 0
15-11-2017 17.3 (14:10) 1.2 (00:00) 9.2 5 (21:00) 2.5 (14:00) 0 0 0 0 0
14-11-2017 13.1 (13:10) 1.8 (00:00) 7.5 -- (--) -- (--) 0 0 0 0 0
13-11-2017 8.3 (00:10) 3.1 (00:00) 5.7 -- (--) -- (--) 0 0 0 0 0
12-11-2017 15.4 (11:40) 5.2 (00:00) 10.3 12.22 (22:40) 5 (13:10) 0.4 0 0 0 0.4
11-11-2017 14.9 (13:40) 6.8 (00:00) 10.8 13.06 (13:40) 7.22 (14:10) 0 0 0 0 0
10-11-2017 13.9 (12:50) 2.7 (00:00) 8.3 13.89 (01:20) 7.22 (02:00) 0 0 0 0 0
09-11-2017 9.7 (13:00) 2.1 (00:00) 5.9 -- (--) -- (--) 0 0 0 0 0
08-11-2017 9.3 (12:40) 1.5 (00:00) 5.4 10.83 (02:20) 5.83 (13:20) 0 0 0 0 0
07-11-2017 13.1 (15:40) -1.3 (-00:0) 5.9 13.33 (03:10) 7.5 (02:40) 0 0 0 0 0
06-11-2017 8.2 (11:50) 2.4 (00:00) 5.3 -- (--) -- (--) 1.2 1.2 0 0 0
05-11-2017 11 (13:50) 3.1 (00:00) 7 13.61 (23:30) 6.11 (12:00) 2 0.2 0 0 1.8
04-11-2017 13 (15:30) 7.3 (00:00) 10.2 13.06 (02:00) 4.17 (02:10) 10.4 1.2 6.2 0.4 2.6
03-11-2017 17.5 (11:20) 10.2 (00:00) 13.8 -- (--) -- (--) 0 0 0 0 0
02-11-2017 17.2 (13:50) 9.3 (01:20) 13.3 6.67 (13:30) 4.72 (02:40) 0 0 0 0 0
01-11-2017 17.3 (15:00) 8.5 (00:00) 12.9 7.22 (13:10) 4.17 (00:40) 0 0 0 0 0
31-10-2017 17.4 (14:40) 4.1 (00:00) 10.7 7.22 (19:40) 4.72 (19:10) 0 0 0 0 0
30-10-2017 19.1 (14:00) 5.1 (00:00) 12.1 -- (--) -- (--) 0 0 0 0 0
29-10-2017 20.2 (15:00) 5.9 (00:00) 13.1 7.22 (05:00) 3.89 (15:30) 0 0 0 0 0
28-10-2017 20.2 (15:30) 7.4 (00:00) 13.8 -- (--) -- (--) 0 0 0 0 0
27-10-2017 24.2 (14:30) 10.2 (00:00) 17.2 -- (--) -- (--) 0 0 0 0 0
26-10-2017 25.7 (16:00) 13.5 (00:00) 19.6 7.78 (05:20) 5.83 (05:10) 0 0 0 0 0

Gráficas

Temp. máximas Temp. mínimas Temp. medias Precipitaciones Rachas de viento máximas Velocidades máximas media en intervalos de 10 minutos

Datos horarios

Fecha y hora oficial Temperatura (ºC) Velocidad del viento (km/h) Dirección del viento Racha (km/h) Dirección de racha Precipitación (mm) Presión (hPa) Tendencia (hPa) Humedad (%)
2017-11-24 23:00:00 9.6 8 Nordeste 14 Norte 0 900.8 -0.5 82
2017-11-24 22:00:00 9.4 5 Norte 11 Norte 0 901.5 0 83
2017-11-24 21:00:00 9.1 3 Norte 19 Norte 0 901.7 0.1 85
2017-11-24 20:00:00 8.7 10 Nordeste 18 Norte 0 901.3 0.2 87
2017-11-24 19:00:00 8.9 7 Nordeste 19 Norte 0.2 901.5 0.1 83
2017-11-24 18:00:00 9.3 8 Nordeste 12 Nordeste 0 901.6 -0.1 81
2017-11-24 17:00:00 10.7 8 Nordeste 13 Nordeste 0 901.1 -0.6 72
2017-11-24 16:00:00 11.7 3 Este 9 Nordeste 0 901.4 -0.3 58
2017-11-24 15:00:00 11.9 6 Sur 15 Sur 0 901.7 -0.9 58
2017-11-24 14:00:00 11.8 7 Sudeste 14 Este 0 901.7 -1.4 57
2017-11-24 13:00:00 11.4 9 Sudeste 14 Sudeste 0 901.7 -0.8 61
2017-11-24 12:00:00 10.7 10 Este 17 Sudeste 0 902.6 0.2 63
2017-11-24 11:00:00 9.7 3 Nordeste 13 Nordeste 0 903.1 0.8 71
2017-11-24 10:00:00 9 8 Norte 24 Norte 0 902.5 0.4 78
2017-11-24 09:00:00 8 17 Nordeste 25 Nordeste 0 902.4 0.5 83
2017-11-24 08:00:00 8 15 Nordeste 24 Norte 0.2 902.3 0.3 83
2017-11-24 07:00:00 8 13 Norte 20 Nordeste 0.4 902.1 0.7 84
2017-11-24 06:00:00 9 5 Norte 23 Sudeste 0.2 901.9 0 74
2017-11-24 05:00:00 11.6 9 Sudoeste 20 Sur 0 902 -0.2 47
2017-11-24 04:00:00 11.5 7 Norte 11 Norte 0 901.4 -1 48
2017-11-24 03:00:00 11.6 5 Sudeste 14 Norte 0 901.9 -0.6 47
2017-11-24 02:00:00 11.6 2 Sudoeste 8 Noroeste 0 902.2 -0.3 47
2017-11-24 01:00:00 11.7 3 Sudoeste 7 Sudoeste 0 902.4 0.1 48
2017-11-24 00:00:00 12.3 3 Norte 9 Norte 0 902.5 0.5 46
2017-11-23 23:00:00 11.5 3 Nordeste 10 Norte 0 902.5 0.8 51
2017-11-23 22:00:00 11.8 5 Nordeste 14 Norte 0 902.3 0.6 51
2017-11-23 21:00:00 11.9 4 Oeste 17 Norte 0 902 0.5 48
2017-11-23 20:00:00 12.1 12 Norte 20 Norte 0 901.7 0.8 45
2017-11-23 19:00:00 12 8 Norte 16 Nordeste 0 901.7 1.1 45
2017-11-23 18:00:00 12.2 4 Norte 8 Nordeste 0 901.5 1.2 43
2017-11-23 17:00:00 13.8 4 Sudoeste 13 Sur 0 900.9 0.3 37
2017-11-23 16:00:00 15.8 9 Sur 17 Sur 0 900.6 -0.3 31
2017-11-23 15:00:00 15.6 9 Sudeste 16 Sudeste 0 900.3 -0.9 31
2017-11-23 14:00:00 14.5 7 Sudeste 15 Sur 0 900.6 -0.3 35
2017-11-23 13:00:00 12.2 6 Nordeste 17 Norte 0 900.9 0.7 45
2017-11-23 12:00:00 11.3 12 Norte 17 Norte 0 901.2 1.7 49
2017-11-23 11:00:00 12.3 4 Oeste 10 Sudoeste 0 900.9 2 35
2017-11-23 10:00:00 11.6 3 Nordeste 20 Nordeste 0 900.2 1.8 39
2017-11-23 09:00:00 10.4 11 Nordeste 23 Nordeste 0 899.5 1.3 38
2017-11-23 08:00:00 10.5 12 Nordeste 19 Norte 0 898.9 0.5 38
2017-11-23 07:00:00 10.3 8 Nordeste 19 Norte 0 898.4 0.2 37
2017-11-23 06:00:00 10.3 12 Norte 21 Nordeste 0 898.2 0.2 36
2017-11-23 05:00:00 9.5 13 Nordeste 19 Nordeste 0 898.4 0.5 37
2017-11-23 04:00:00 9.9 12 Nordeste 20 Nordeste 0 898.2 0.3 34
2017-11-23 03:00:00 10.9 7 Nordeste 15 Norte 0 898 0.1 30
2017-11-23 02:00:00 11 6 Nordeste 12 Nordeste 0 897.9 0 30
2017-11-23 01:00:00 10 2 Norte 20 Norte 0 897.9 0.2 35
2017-11-23 00:00:00 9.5 13 Norte 23 Nordeste 0 897.9 0.4 34
2017-11-22 23:00:00 8.4 3 Norte 13 Norte 0 897.9 0.7 37
2017-11-22 22:00:00 10.2 8 Norte 19 Norte 0 897.7 0.5 32
2017-11-22 21:00:00 9.5 11 Norte 22 Nordeste 0 897.5 0.4 37
2017-11-22 20:00:00 10.1 13 Norte 21 Nordeste 0 897.2 0.2 36
2017-11-22 19:00:00 10.5 14 Norte 24 Nordeste 0 897.2 -0.1 35
2017-11-22 18:00:00 10.9 14 Norte 21 Nordeste 0 897.1 -0.7 36
2017-11-22 17:00:00 13.6 3 Sur 16 Sudoeste 0 897 -1 28
2017-11-22 16:00:00 16.5 10 Sudoeste 19 Sur 0 897.3 -1.1 23
2017-11-22 15:00:00 17.4 13 Sur 23 Sudoeste 0 897.8 -1.3 21
2017-11-22 14:00:00 17.5 12 Sur 21 Sur 0 898 -1.5 20
2017-11-22 13:00:00 17.6 9 Sur 17 Sur 0 898.4 -1.2 20
2017-11-22 12:00:00 17 9 Sur 14 Sudeste 0 899.1 -0.4 21
2017-11-22 11:00:00 13.1 6 Nordeste 17 Norte 0 899.5 0 28
2017-11-22 10:00:00 11.7 12 Nordeste 24 Nordeste 0 899.6 0.1 28
2017-11-22 09:00:00 9.4 18 Nordeste 26 Nordeste 0 899.5 -0.4 31
2017-11-22 08:00:00 7.4 10 Norte 24 Nordeste 0 899.5 -0.8 36
2017-11-22 07:00:00 8.3 21 Nordeste 28 Norte 0 899.5 -1.1 34
2017-11-22 06:00:00 7.9 14 Norte 27 Nordeste 0 899.9 -1.4 37
2017-11-22 05:00:00 8.3 14 Nordeste 28 Norte 0 900.3 -1.3 36
2017-11-22 04:00:00 8.7 18 Nordeste 27 Norte 0 900.6 -1.4 38
2017-11-22 03:00:00 8.6 13 Nordeste 24 Norte 0 901.3 -1 38
2017-11-22 02:00:00 8.6 13 Norte 24 Nordeste 0 901.6 -0.8 39
2017-11-22 01:00:00 8.9 16 Nordeste 23 Norte 0 902 -0.6 40
2017-11-22 00:00:00 8.6 11 Nordeste 19 Norte 0 902.3 -0.3 45
2017-11-21 23:00:00 9 14 Norte 21 Nordeste 0 902.4 -0.4 47
2017-11-21 22:00:00 8.3 7 Norte 17 Norte 0 902.6 -0.2 50
2017-11-21 21:00:00 9.1 9 Norte 19 Norte 0 902.6 -0.1 49
2017-11-21 20:00:00 9.4 14 Norte 20 Norte 0 902.8 0.2 49
2017-11-21 19:00:00 10 10 Norte 21 Nordeste 0 902.8 0.1 47
2017-11-21 18:00:00 10.9 10 Norte 16 Norte 0 902.7 -0.4 44
2017-11-21 17:00:00 12.8 0 Calma 13 Sudoeste 0 902.6 -0.8 38
2017-11-21 16:00:00 16.8 8 Sudoeste 13 Sur 0 902.7 -1.2 28
2017-11-21 15:00:00 17.3 7 Sur 17 Sudoeste 0 903.1 -1.7 28
2017-11-21 14:00:00 17.2 8 Sur 17 Sur 0 903.4 -1.5 28
2017-11-21 13:00:00 16.3 8 Sur 16 Sur 0 903.9 -0.9 30
2017-11-21 12:00:00 15.2 6 Sudeste 10 Sudeste 0 904.8 0 32
2017-11-21 11:00:00 12.9 3 Sudeste 14 Nordeste 0 904.9 0.5 31
2017-11-21 10:00:00 9.2 11 Nordeste 16 Nordeste 0 904.8 0.7 36
2017-11-21 09:00:00 7.2 5 Nordeste 15 Norte 0 904.8 0.6 42
2017-11-21 08:00:00 5 5 Norte 13 Nordeste 0 904.4 0.3 48
2017-11-21 07:00:00 5.4 3 Noroeste 9 Nordeste 0 904.1 -0.2 50
2017-11-21 06:00:00 5.2 4 Norte 10 Norte 0 904.2 -0.6 52
2017-11-21 05:00:00 5.3 4 Nordeste 10 Norte 0 904.1 -0.8 54
2017-11-21 04:00:00 5.4 3 Noroeste 13 Norte 0 904.3 -0.8 55
2017-11-21 03:00:00 5.9 2 Oeste 7 Norte 0 904.8 -0.6 54
2017-11-21 02:00:00 5.6 0 Calma 8 Nordeste 0 904.9 -0.3 55
2017-11-21 01:00:00 6.3 4 Norte 9 Norte 0 905.1 0 53
2017-11-21 00:00:00 6.7 4 Nordeste 13 Norte 0 905.4 0.3 51
2017-11-20 23:00:00 7.3 2 Norte 15 Norte 0 905.2 0.1 49
2017-11-20 22:00:00 8 8 Norte 15 Norte 0 905.1 0.4 48
2017-11-20 21:00:00 8 5 Nordeste 13 Nordeste 0 905.1 0.7 48
2017-11-20 20:00:00 8.2 6 Norte 13 Nordeste 0 905.1 0.8 47
2017-11-20 19:00:00 9.6 8 Norte 19 Norte 0 904.7 0.6 42
2017-11-20 18:00:00 11.1 10 Norte 18 Nordeste 0 904.4 0.3 39
2017-11-20 17:00:00 14.6 5 Oeste 15 Sudoeste 0 904.3 -0.3 29
2017-11-20 16:00:00 16.9 9 Sudoeste 19 Sudoeste 0 904.1 -1.1 24
2017-11-20 15:00:00 17.3 12 Sudoeste 20 Sudoeste 0 904.1 -1.5 24
2017-11-20 14:00:00 18.2 13 Sudoeste 18 Sudoeste 0 904.6 -1.3 23
2017-11-20 13:00:00 17.3 6 Sur 11 Sur 0 905.2 -0.3 26
2017-11-20 12:00:00 15.9 5 Sudeste 9 Sur 0 905.6 0.4 27
2017-11-20 11:00:00 13.9 3 Sudeste 7 Nordeste 0 905.9 1 30
2017-11-20 10:00:00 10.9 6 Nordeste 13 Nordeste 0 905.5 0.7 43
2017-11-20 09:00:00 8.3 0 Calma 5 Nordeste 0 905.2 0.6 45
2017-11-20 08:00:00 6.4 6 Norte 14 Norte 0 904.9 0.6 47
2017-11-20 07:00:00 5.9 5 Norte 9 Norte 0 904.8 0.5 48
2017-11-20 06:00:00 5.4 4 Norte 9 Norte 0 904.6 0.1 51
2017-11-20 05:00:00 6.1 4 Norte 14 Norte 0 904.3 -0.3 49
2017-11-20 04:00:00 5.9 2 Sudeste 6 Nordeste 0 904.3 -0.3 48
2017-11-20 03:00:00 5.6 0 Calma 9 Norte 0 904.5 -0.3 46
2017-11-20 02:00:00 6.4 3 Nordeste 8 Norte 0 904.6 -0.1 44
2017-11-20 01:00:00 6.7 3 Sudoeste 6 Sudeste 0 904.6 -0.2 43
2017-11-20 00:00:00 6.3 0 Calma 7 Norte 0 904.8 0.3 44
2017-11-19 23:00:00 7 7 Norte 12 Nordeste 0 904.7 0.5 42
2017-11-19 22:00:00 7 2 Noroeste 13 Nordeste 0 904.8 0.9 44
2017-11-19 21:00:00 6.9 0 Calma 14 Nordeste 0 904.5 1.1 46
2017-11-19 20:00:00 7.6 10 Nordeste 15 Norte 0 904.2 1.1 45
2017-11-19 19:00:00 8.4 5 Norte 13 Nordeste 0 903.9 1.1 43
2017-11-19 18:00:00 9.9 7 Norte 12 Nordeste 0 903.4 0.6 40
2017-11-19 17:00:00 12.6 6 Sudoeste 11 Sudoeste 0 903.1 0.1 33
2017-11-19 16:00:00 16.3 5 Sur 14 Sudoeste 0 902.8 -0.6 25
2017-11-19 15:00:00 16.7 8 Sudoeste 17 Sudoeste 0 902.8 -1.2 24
2017-11-19 14:00:00 16.4 8 Sur 16 Sur 0 903 -1 23
2017-11-19 13:00:00 15 7 Sudeste 15 Sur 0 903.4 -0.4 30
2017-11-19 12:00:00 13.5 5 Sur 10 Sur 0 904 0.5 30
2017-11-19 11:00:00 11.1 4 Sudeste 10 Nordeste 0 904 0.8 35
2017-11-19 10:00:00 7.8 4 Nordeste 10 Nordeste 0 903.8 0.8 39
2017-11-19 09:00:00 5.9 2 Nordeste 7 Noroeste 0 903.5 0.7 44
2017-11-19 08:00:00 2.8 3 Oeste 6 Sudeste 0 903.2 0.1 49
2017-11-19 07:00:00 2.7 4 Norte 6 Nordeste 0 903 -0.4 47
2017-11-19 06:00:00 3.4 3 Norte 7 Norte 0 902.8 -0.7 43
2017-11-19 05:00:00 3.1 2 Norte 8 Nordeste 0 903.1 -0.5 48
2017-11-19 04:00:00 4.1 3 Sudeste 10 Norte 0 903.4 -0.4 49
2017-11-19 03:00:00 3.5 0 Calma 5 Sudoeste 0 903.5 -0.2 60
2017-11-19 02:00:00 3.4 2 Noroeste 6 Nordeste 0 903.6 -0.4 64
2017-11-19 01:00:00 3.8 2 Sudoeste 9 Norte 0 903.8 -0.1 65
2017-11-19 00:00:00 4.4 3 Noroeste 10 Norte 0 903.7 0.1 61
2017-11-18 23:00:00 4.5 2 Noroeste 9 Norte 0 904 0.6 65
2017-11-18 22:00:00 5.2 2 Oeste 17 Norte 0 903.9 1 65
2017-11-18 21:00:00 6 8 Norte 19 Nordeste 0 903.6 0.9 61
2017-11-18 20:00:00 6.7 7 Norte 18 Norte 0 903.4 0.9 62
2017-11-18 19:00:00 8.1 13 Norte 20 Norte 0 902.9 0.8 57
2017-11-18 18:00:00 9.5 7 Norte 11 Norte 0 902.7 0.5 57
2017-11-18 17:00:00 12.3 3 Sudoeste 19 Sudoeste 0 902.5 0 46
2017-11-18 16:00:00 15 10 Sudoeste 19 Sudoeste 0 902.1 -0.5 37
2017-11-18 15:00:00 16.1 9 Sudoeste 17 Sudoeste 0 902.2 -1 31
2017-11-18 14:00:00 15.5 8 Sudoeste 19 Sur 0 902.5 -0.6 31
2017-11-18 13:00:00 15.1 8 Sur 16 Sudoeste 0 902.6 -0.4 34
2017-11-18 12:00:00 13.6 6 Sudeste 12 Sur 0 903.2 0.4 38
2017-11-18 11:00:00 11.9 4 Este 9 Sudeste 0 903.1 0.7 41
2017-11-18 10:00:00 8.6 4 Este 11 Nordeste 0 903 0.7 50
2017-11-18 09:00:00 6.4 7 Nordeste 15 Norte 0 902.8 0.6 55
2017-11-18 08:00:00 4.1 0 Calma 10 Nordeste 0 902.4 0.1 65
2017-11-18 07:00:00 4.6 2 Sur 9 Nordeste 0 902.3 -0.1 64
2017-11-18 06:00:00 4.3 3 Sudoeste 9 Este 0 902.2 -0.3 65
2017-11-18 05:00:00 4.9 4 Oeste 12 Nordeste 0 902.3 -0.2 64
2017-11-18 04:00:00 5.6 3 Nordeste 10 Nordeste 0 902.4 -0.3 62
2017-11-18 03:00:00 5.5 2 Nordeste 7 Este 0 902.5 -0.4 63
2017-11-18 02:00:00 6 3 Noroeste 12 Norte 0 902.5 -0.4 62
2017-11-18 01:00:00 6.8 2 Sudeste 10 Nordeste 0 902.7 -0.1 59
2017-11-18 00:00:00 7 2 Sur 10 Nordeste 0 902.9 0.4 59
2017-11-17 23:00:00 7 2 Norte 13 Nordeste 0 902.9 0.3 58
2017-11-17 22:00:00 8 5 Norte 10 Nordeste 0 902.8 0.4 55
2017-11-17 21:00:00 8.3 4 Oeste 10 Nordeste 0 902.5 0.5 55
2017-11-17 20:00:00 9.2 5 Nordeste 12 Nordeste 0 902.6 0.8 52
2017-11-17 19:00:00 9.8 3 Norte 9 Nordeste 0 902.4 0.6 51
2017-11-17 18:00:00 11.9 4 Nordeste 10 Nordeste 0 902 0.2 45
2017-11-17 17:00:00 15.5 4 Sudoeste 16 Sudoeste 0 901.8 -0.4 34
2017-11-17 16:00:00 17.5 9 Sudoeste 21 Sudoeste 0 901.8 -0.9 29
2017-11-17 15:00:00 19.2 10 Sudoeste 17 Sudoeste 0 901.8 -1.4 25
2017-11-17 14:00:00 19 9 Sur 15 Sudeste 0 902.2 -1.3 25
2017-11-17 13:00:00 17.7 8 Sudeste 13 Sur 0 902.7 -0.7 25
2017-11-17 12:00:00 15.3 6 Sur 10 Sur 0 903.2 0.1 27
2017-11-17 11:00:00 12.1 3 Sur 8 Nordeste 0 903.5 0.6 30
2017-11-17 10:00:00 10.1 3 Noroeste 9 Nordeste 0 903.4 0.7 43
2017-11-17 09:00:00 10 5 Nordeste 12 Norte 0 903.1 0.4 34
2017-11-17 08:00:00 6.6 5 Nordeste 12 Norte 0 902.9 0.2 38
2017-11-17 07:00:00 6.1 3 Norte 9 Nordeste 0 902.7 0 40
2017-11-17 06:00:00 6.3 3 Norte 6 Norte 0 902.7 -0.3 39
2017-11-17 05:00:00 6.6 0 Calma 8 Oeste 0 902.7 -0.2 39
2017-11-17 04:00:00 6.9 3 Norte 8 Nordeste 0 902.7 -0.2 38
2017-11-17 03:00:00 6.7 2 Sudoeste 8 Norte 0 903 0.2 39
2017-11-17 02:00:00 7.4 3 Norte 9 Nordeste 0 902.9 0.2 37
2017-11-17 01:00:00 8.5 4 Oeste 8 Nordeste 0 902.9 0.3 34
2017-11-17 00:00:00 8.4 4 Noroeste 8 Oeste 0 902.8 0.3 34
2017-11-16 23:00:00 8.2 2 Nordeste 11 Nordeste 0 902.7 0.2 32
2017-11-16 22:00:00 9.3 7 Sudoeste 19 Norte 0 902.6 0.2 30
2017-11-16 21:00:00 12.4 8 Norte 19 Norte 0 902.5 0.3 18
2017-11-16 20:00:00 11.6 8 Norte 18 Nordeste 0 902.5 0.6 22
2017-11-16 19:00:00 11.3 10 Nordeste 24 Norte 0 902.4 0.7 29
2017-11-16 18:00:00 12.2 8 Nordeste 21 Norte 0 902.2 0.7 30
2017-11-16 17:00:00 14.2 9 Nordeste 23 Norte 0 901.9 0.1 23
2017-11-16 16:00:00 16.2 8 Sudoeste 17 Sudoeste 0 901.7 -0.4 26
2017-11-16 15:00:00 16.5 8 Sur 19 Sudoeste 0 901.5 -1.1 26
2017-11-16 14:00:00 16.4 11 Sudeste 18 Sur 0 901.8 -0.9 28
2017-11-16 13:00:00 15.4 9 Sudeste 17 Sudeste 0 902.1 -0.3 30
2017-11-16 12:00:00 13.8 5 Sudeste 13 Sur 0 902.6 0.4 32
2017-11-16 11:00:00 11.2 4 Sudeste 10 Sudeste 0 902.7 1.1 39
2017-11-16 10:00:00 9 5 Sudeste 10 Nordeste 0 902.4 1.2 48
2017-11-16 09:00:00 6.1 5 Nordeste 10 Nordeste 0 902.2 1.1 53
2017-11-16 08:00:00 3.5 3 Norte 8 Noroeste 0 901.6 0.7 59
2017-11-16 07:00:00 3.6 3 Norte 8 Nordeste 0 901.2 0.2 58
2017-11-16 06:00:00 4 5 Norte 11 Nordeste 0 901.1 0 57
2017-11-16 05:00:00 5 2 Nordeste 9 Nordeste 0 900.9 -0.4 52
2017-11-16 04:00:00 5.3 3 Oeste 13 Nordeste 0 901 -0.2 51
2017-11-16 03:00:00 6.2 4 Este 7 Nordeste 0 901.1 0.2 48
2017-11-16 02:00:00 6.1 3 Noroeste 8 Norte 0 901.3 0.2 50
2017-11-16 01:00:00 6.9 5 Norte 10 Norte 0 901.2 0.5 47
2017-11-16 00:00:00 7.4 3 Noroeste 10 Nordeste 0 900.9 0.4 44
2017-11-15 23:00:00 7 3 Sur 9 Sur 0 901.1 0.6 47
2017-11-15 22:00:00 7 4 Sur 14 Oeste 0 900.7 0.5 51
2017-11-15 21:00:00 7.8 6 Sur 18 Nordeste 0 900.5 0.4 47
2017-11-15 20:00:00 7.9 6 Norte 11 Oeste 0 900.5 0.6 48
2017-11-15 19:00:00 8.3 4 Sudoeste 9 Norte 0 900.2 0.2 47
2017-11-15 18:00:00 9.6 4 Nordeste 8 Este 0 900.1 0.2 44
2017-11-15 17:00:00 12.7 2 Norte 7 Sur 0 899.9 -0.2 35
2017-11-15 16:00:00 14.5 4 Sur 14 Sudoeste 0 900 -0.7 29
2017-11-15 15:00:00 15.9 7 Oeste 15 Sudoeste 0 899.9 -1.4 25
2017-11-15 14:00:00 17.2 9 Sur 13 Sur 0 900.1 -1.6 23
2017-11-15 13:00:00 15.7 7 Sur 11 Sudeste 0 900.7 -1.1 25
2017-11-15 12:00:00 13.8 5 Sudeste 9 Sudeste 0 901.3 -0.2 28
2017-11-15 11:00:00 9.8 4 Sudeste 9 Este 0 901.7 0.5 35
2017-11-15 10:00:00 5.1 2 Este 11 Nordeste 0 901.8 0.6 53
2017-11-15 09:00:00 3.8 4 Norte 11 Nordeste 0 901.5 0.3 53
2017-11-15 08:00:00 2 4 Noroeste 8 Norte 0 901.2 0 52
2017-11-15 07:00:00 1.6 3 Norte 6 Oeste 0 901.2 -0.4 56
2017-11-15 06:00:00 1.4 2 Norte 9 Noroeste 0 901.2 -0.7 57
2017-11-15 05:00:00 1.3 2 Norte 10 Nordeste 0 901.2 -1 58
2017-11-15 04:00:00 1.4 3 Nordeste 18 Nordeste 0 901.6 -0.8 58
2017-11-15 03:00:00 2.4 5 Norte 16 Norte 0 901.9 -0.3 53
2017-11-15 02:00:00 2.1 3 Noroeste 10 Nordeste 0 902.2 0.1 54
2017-11-15 01:00:00 2 4 Noroeste 10 Nordeste 0 902.4 0.5 54
2017-11-15 00:00:00 2.7 2 Oeste 8 Noroeste 0 902.2 0.8 51
2017-11-14 23:00:00 2.5 2 Sur 6 Norte 0 902.1 0.9 52
2017-11-14 22:00:00 2.5 6 Nordeste 10 Norte 0 901.9 1.1 53
2017-11-14 21:00:00 3.3 6 Norte 13 Nordeste 0 901.4 1.2 49
2017-11-14 20:00:00 3.5 3 Nordeste 8 Nordeste 0 901.2 1.5 48
2017-11-14 19:00:00 4.6 5 Nordeste 9 Sudoeste 0 900.8 1.4 43
2017-11-14 18:00:00 6.2 3 Sudoeste 15 Oeste 0 900.2 0.6 37
2017-11-14 17:00:00 9.1 6 Sur 39 Nordeste 0 899.7 0 29
2017-11-14 16:00:00 11.5 25 Nordeste 43 Nordeste 0 899.4 -0.7 21
2017-11-14 15:00:00 11.8 22 Nordeste -- -- 0 899.6 -0.6 21
2017-11-14 14:00:00 11.6 22 Nordeste -- -- 0 899.7 -0.7 23
2017-11-14 13:00:00 12.6 9 Sur 20 Sudeste 0 900.1 -0.1 22
2017-11-14 12:00:00 11.6 12 Sur 21 Sur 0 900.2 -0.1 23
2017-11-14 11:00:00 9.1 9 Sur 35 Nordeste 0 900.4 1.1 24
2017-11-14 10:00:00 6.8 8 Sur 19 Sudoeste 0 900.2 1.7 24
2017-11-14 09:00:00 5.1 6 Sudeste -- -- 0 900.3 2.2 26
2017-11-14 08:00:00 6.1 -- -- -- -- 0 899.3 1.4 16
2017-11-14 07:00:00 7 20 Norte 50 Nordeste 0 898.5 -0.1 12
2017-11-14 06:00:00 6.2 19 Norte 55 Norte 0 898.1 -0.9 12
2017-11-14 05:00:00 5.9 16 Norte 49 Nordeste 0 897.9 -1.2 13
2017-11-14 04:00:00 4.7 21 Norte 51 Noroeste 0 898.6 -0.5 19
2017-11-14 03:00:00 4.3 14 Noroeste -- -- 0 899 -0.7 20
2017-11-14 02:00:00 4.1 -- -- -- -- 0 899.1 -0.5 25
2017-11-14 01:00:00 5 -- -- -- -- 0 899.1 -0.2 20
2017-11-14 00:00:00 4.5 -- -- -- -- 0 899.7 0.5 22
2017-11-13 23:00:00 4.5 -- -- -- -- 0 899.6 0.2 20
2017-11-13 22:00:00 4.5 -- -- -- -- 0 899.3 0.2 21
2017-11-13 21:00:00 3.2 11 Norte 46 Este 0 899.2 0.5 29
2017-11-13 20:00:00 4.8 27 Nordeste -- -- 0 899.4 0.8 21
2017-11-13 19:00:00 4.9 -- -- -- -- 0 899.1 0.5 21
2017-11-13 18:00:00 5 -- -- -- -- 0 898.7 1 21
2017-11-13 17:00:00 5.3 -- -- -- -- 0 898.6 0.8 23
2017-11-13 16:00:00 5.6 -- -- -- -- 0 898.6 0.6 25
2017-11-13 15:00:00 6 -- -- -- -- 0 897.7 -0.9 23
2017-11-13 14:00:00 6.3 -- -- -- -- 0 897.8 -0.1 23
2017-11-13 13:00:00 6.7 20 Nordeste -- -- 0 898 0.2 19
2017-11-13 12:00:00 6.3 -- -- -- -- 0 898.6 1.4 21
2017-11-13 11:00:00 6.1 24 Nordeste -- -- 0 897.9 1.6 22
2017-11-13 10:00:00 4.8 -- -- -- -- 0 897.8 2.4 25
2017-11-13 09:00:00 5 18 Norte 52 Noroeste 0 897.2 1.9 26
2017-11-13 08:00:00 3.9 15 Oeste -- -- 0 896.3 1.8 34
2017-11-13 07:00:00 4 17 Noroeste -- -- 0 895.4 -0.1 42
2017-11-13 06:00:00 4.8 -- -- -- -- 0 895.3 -0.7 48
2017-11-13 05:00:00 5.7 -- -- -- -- 0 894.5 -2.3 44
2017-11-13 04:00:00 5.7 -- -- -- -- 0 895.5 -2.4 50
2017-11-13 03:00:00 6.6 -- -- -- -- 0 896 -2.1 50
2017-11-13 02:00:00 7.4 21 Norte 68 Noroeste 0 896.8 -1.5 46
2017-11-13 01:00:00 7.2 11 Oeste 54 Nordeste 0 897.9 -0.6 53
2017-11-13 00:00:00 8.2 14 Noroeste 42 Noroeste 0 898.1 -1 56
2017-11-12 23:00:00 8.7 14 Noroeste 44 Noroeste 0.2 898.3 -0.8 65
2017-11-12 22:00:00 8.6 9 Noroeste 39 Oeste 0 898.5 -0.7 81
2017-11-12 21:00:00 9.2 12 Noroeste 33 Oeste 0 899.1 -0.6 76
2017-11-12 20:00:00 10.1 15 Noroeste 42 Noroeste 0 899.1 -1 67
2017-11-12 19:00:00 9.2 8 Noroeste 23 Norte 0.2 899.2 -1 80
2017-11-12 18:00:00 10.8 12 Noroeste 34 Oeste 0 899.7 -0.6 67
2017-11-12 17:00:00 10.6 7 Oeste 29 Oeste 0 900.1 -0.8 72
2017-11-12 16:00:00 13.2 14 Oeste 37 Oeste 0 900.2 -0.7 49
2017-11-12 15:00:00 13.9 13 Oeste 41 Oeste 0 900.3 -1.6 47
2017-11-12 14:00:00 14.2 12 Oeste 40 Sudoeste 0 900.9 -1.3 55
2017-11-12 13:00:00 14.9 13 Oeste 42 Sudoeste 0 900.9 -1.5 47
2017-11-12 12:00:00 14.5 13 Oeste 33 Noroeste 0 901.9 -0.9 48
2017-11-12 11:00:00 14.1 13 Noroeste 28 Sudoeste 0 902.2 -0.5 44
2017-11-12 10:00:00 12.7 8 Sudoeste 21 Sudoeste 0 902.4 -0.3 57
2017-11-12 09:00:00 8.5 4 Sur 16 Norte 0 902.8 -0.1 71
2017-11-12 08:00:00 5.5 3 Norte 13 Nordeste 0 902.7 -0.4 80
2017-11-12 07:00:00 5.5 5 Oeste 10 Nordeste 0 902.7 -1 81
2017-11-12 06:00:00 5.5 3 Norte 13 Nordeste 0 902.9 -1.6 81
2017-11-12 05:00:00 6.2 4 Noroeste 15 Nordeste 0 903.1 -1.7 84
2017-11-12 04:00:00 6.6 8 Norte 14 Norte 0 903.7 -1.4 84
2017-11-12 03:00:00 6.3 7 Norte 11 Noroeste 0 904.5 -0.9 85
2017-11-12 02:00:00 6.8 4 Noroeste 18 Norte 0 904.8 -0.6 83
2017-11-12 01:00:00 6.5 3 Norte 13 Sudoeste 0 905.1 -0.4 80
2017-11-12 00:00:00 7.7 5 Sur 16 Noroeste 0 905.4 -0.3 71
2017-11-11 23:00:00 7.3 8 Noroeste 17 Norte 0 905.4 -0.6 72
2017-11-11 22:00:00 7.7 2 Noroeste 15 Noroeste 0 905.5 -0.4 70
2017-11-11 21:00:00 8.4 6 Oeste 21 Oeste 0 905.7 -0.4 67
2017-11-11 20:00:00 8.4 5 Noroeste 19 Oeste 0 906 0.1 64
2017-11-11 19:00:00 8.8 10 Oeste 23 Norte 0 905.9 0.1 62
2017-11-11 18:00:00 10.4 12 Noroeste 29 Norte 0 906.1 0.1 57
2017-11-11 17:00:00 12.1 12 Norte 36 Nordeste 0 905.9 -0.5 47
2017-11-11 16:00:00 13.4 18 Nordeste 39 Nordeste 0 905.8 -1 41
2017-11-11 15:00:00 14.1 17 Nordeste -- -- 0 906 -1.4 42
2017-11-11 14:00:00 14.8 14 Norte 47 Nordeste 0 906.4 -1.1 43
2017-11-11 13:00:00 14.6 11 Nordeste 41 Noroeste 0 906.8 -0.8 45
2017-11-11 12:00:00 13.6 8 Nordeste 20 Nordeste 0 907.4 0 48
2017-11-11 11:00:00 12.7 5 Sudeste 16 Norte 0 907.5 0.1 58
2017-11-11 10:00:00 10.8 6 Noroeste 17 Oeste 0 907.6 0.5 62
2017-11-11 09:00:00 9.9 8 Oeste 17 Oeste 0 907.4 0 61
2017-11-11 08:00:00 8.3 7 Norte 21 Nordeste 0 907.4 -0.2 71
2017-11-11 07:00:00 8.1 5 Noroeste 18 Noroeste 0 907.1 -0.7 75
2017-11-11 06:00:00 7.2 5 Norte 14 Norte 0 907.4 -0.5 81
2017-11-11 05:00:00 7.3 5 Este 15 Sudoeste 0 907.6 -0.3 80
2017-11-11 04:00:00 7.4 5 Norte 27 Noroeste 0 907.8 -0.5 81
2017-11-11 03:00:00 7.2 8 Noroeste 21 Oeste 0 907.9 -0.5 83
2017-11-11 02:00:00 7.2 10 Oeste 31 Oeste 0 907.9 -0.4 80
2017-11-11 01:00:00 7.5 10 Oeste 26 Oeste 0 908.3 0.1 77
2017-11-11 00:00:00 8 10 Oeste 26 Sudoeste 0 908.4 0.2 75
2017-11-10 23:00:00 8.8 8 Oeste 33 Noroeste 0 908.3 0.3 63
2017-11-10 22:00:00 8.9 14 Oeste 33 Noroeste 0 908.2 0.4 69
2017-11-10 21:00:00 8.4 12 Noroeste 27 Oeste 0 908.2 0.9 70
2017-11-10 20:00:00 8.5 14 Oeste 30 Oeste 0 908 1.1 70
2017-11-10 19:00:00 8.7 15 Oeste 34 Sudoeste 0 907.8 1 68
2017-11-10 18:00:00 9.9 9 Noroeste 42 Noroeste 0 907.3 0.4 51
2017-11-10 17:00:00 10.8 10 Oeste 25 Nordeste 0 906.9 -0.1 53
2017-11-10 16:00:00 12.4 9 Este 32 Sur 0 906.8 -0.4 44
2017-11-10 15:00:00 12.4 5 Nordeste 33 Nordeste 0 906.9 -0.7 43
2017-11-10 14:00:00 12.2 17 Nordeste 35 Nordeste 0 907 -0.6 46
2017-11-10 13:00:00 13 17 Nordeste 30 Nordeste 0 907.2 -0.4 42
2017-11-10 12:00:00 13.2 10 Este 19 Este 0 907.6 0.5 43
2017-11-10 11:00:00 9.2 5 Este 15 Sudoeste 0 907.6 1.2 60
2017-11-10 10:00:00 6.2 4 Oeste 14 Sudoeste 0 907.6 1.7 65
2017-11-10 09:00:00 5.4 6 Sudoeste 13 Sudoeste 0 907.1 1.1 63
2017-11-10 08:00:00 4.3 3 Oeste 21 Sudoeste 0 906.4 0.4 65
2017-11-10 07:00:00 3.8 5 Este 17 Oeste 0 905.9 -0.3 59
2017-11-10 06:00:00 3.4 9 Nordeste 21 Sudoeste 0 906 -0.4 53
2017-11-10 05:00:00 3.4 11 Noroeste 23 Sudoeste 0 906 -0.2 53
2017-11-10 04:00:00 3.1 9 Oeste 27 Oeste 0 906.2 0.2 62
2017-11-10 03:00:00 4.5 8 Este 40 Norte 0 906.4 0.1 58
2017-11-10 02:00:00 5.4 26 Nordeste 50 Nordeste 0 906.2 -0.3 54
2017-11-10 01:00:00 4.9 12 Norte 25 Este 0 906 0.1 57
2017-11-10 00:00:00 4 9 Oeste 28 Sudoeste 0 906.3 1 64
2017-11-09 23:00:00 5 10 Sur 30 Sur 0 906.5 1.7 56
2017-11-09 22:00:00 5 13 Norte 45 Nordeste 0 905.9 1.4 56
2017-11-09 21:00:00 5 14 Oeste 40 Nordeste 0 905.3 0.9 57
2017-11-09 20:00:00 5.4 9 Sudeste 58 Nordeste 0 904.8 1 54
2017-11-09 19:00:00 5.2 13 Oeste -- -- 0 904.5 1 56
2017-11-09 18:00:00 5.3 -- -- -- -- 0 904.4 1.3 60
2017-11-09 17:00:00 6.6 14 Sudeste 46 Nordeste 0 903.8 0.3 51
2017-11-09 16:00:00 6.7 20 Norte -- -- 0 903.5 -0.3 50
2017-11-09 15:00:00 7.3 -- -- -- -- 0 903.1 -1.8 49
2017-11-09 14:00:00 7.7 18 Nordeste -- -- 0 903.5 -1.2 47
2017-11-09 13:00:00 9.7 9 Sudeste 31 Sudoeste 0 903.8 -0.5 46
2017-11-09 12:00:00 5.6 10 Oeste 32 Sudoeste 0 904.9 1.1 63
2017-11-09 11:00:00 6.5 6 Norte 32 Sudoeste 0 904.7 1.7 54
2017-11-09 10:00:00 5.4 11 Este 35 Sudoeste 0 904.3 1.6 61
2017-11-09 09:00:00 4 11 Oeste 27 Sudoeste 0 903.8 1.7 69
2017-11-09 08:00:00 3.5 11 Oeste 27 Sudoeste 0 903 0.4 71
2017-11-09 07:00:00 3.5 10 Sudoeste 33 Norte 0 902.7 0 71
2017-11-09 06:00:00 3.2 13 Oeste 29 Sudoeste 0 902.1 -1 75
2017-11-09 05:00:00 3.1 10 Oeste 30 Sudoeste 0 902.6 -0.7 75
2017-11-09 04:00:00 2.3 6 Noroeste 21 Sudoeste 0 902.7 -0.7 83
2017-11-09 03:00:00 2.3 10 Oeste 23 Sudoeste 0 903.1 -0.3 79
2017-11-09 02:00:00 2.6 7 Oeste 24 Sudoeste 0 903.3 -0.4 72
2017-11-09 01:00:00 2.5 9 Noroeste 24 Oeste 0 903.4 -0.2 69
2017-11-09 00:00:00 2.1 8 Oeste 22 Sudoeste 0 903.4 -0.1 68
2017-11-08 23:00:00 2.3 6 Noroeste 17 Oeste 0 903.7 0.2 63
2017-11-08 22:00:00 2 9 Sudoeste 26 Oeste 0 903.6 0.4 61
2017-11-08 21:00:00 2.2 10 Oeste 14 Sudoeste 0 903.5 0.7 63
2017-11-08 20:00:00 2.6 3 Noroeste 10 Norte 0 903.5 1.4 60
2017-11-08 19:00:00 2.9 7 Norte 19 Norte 0 903.2 1.2 59
2017-11-08 18:00:00 4.7 7 Noroeste 17 Norte 0 902.8 1.3 50
2017-11-08 17:00:00 5.6 13 Norte 32 Norte 0 902.1 0.4 49
2017-11-08 16:00:00 5.7 15 Norte 35 Norte 0 902 0 51
2017-11-08 15:00:00 7 15 Nordeste 33 Norte 0 901.5 -0.9 43
2017-11-08 14:00:00 8 15 Nordeste 35 Nordeste 0 901.7 -0.8 43
2017-11-08 13:00:00 8.3 15 Nordeste 37 Nordeste 0 902 -0.6 38
2017-11-08 12:00:00 8.3 10 Sudeste 37 Nordeste 0 902.4 0 43
2017-11-08 11:00:00 8.7 8 Noroeste 28 Sudoeste 0 902.5 0.2 45
2017-11-08 10:00:00 5.6 8 Nordeste 15 Nordeste 0 902.6 0.8 72
2017-11-08 09:00:00 3.9 5 Norte 14 Noroeste 0 902.4 0.9 83
2017-11-08 08:00:00 2.6 3 Noroeste 12 Norte 0 902.3 1.2 85
2017-11-08 07:00:00 2.8 6 Sudoeste 24 Oeste 0 901.8 0.7 86
2017-11-08 06:00:00 4.5 8 Norte 30 Noroeste 0 901.5 0.3 65
2017-11-08 05:00:00 4.9 13 Oeste 32 Noroeste 0 901.1 0.1 64
2017-11-08 04:00:00 4.3 6 Noroeste 29 Oeste 0 901.1 0 73
2017-11-08 03:00:00 4.9 8 Oeste 39 Noroeste 0 901.2 0.7 79
2017-11-08 02:00:00 6.8 11 Noroeste 29 Noroeste 0 901 0.3 62
2017-11-08 01:00:00 6.3 9 Noroeste 26 Noroeste 0 901.1 1 68
2017-11-08 00:00:00 3.2 6 Norte 15 Nordeste 0 900.5 0.5 45
2017-11-07 23:00:00 3.2 8 Norte 15 Norte 0 900.7 1.1 40
2017-11-07 22:00:00 3.5 5 Norte 15 Nordeste 0 900.1 0.7 40
2017-11-07 21:00:00 3.9 4 Oeste 14 Nordeste 0 900 1 40
2017-11-07 20:00:00 5.3 5 Nordeste 13 Noroeste 0 899.6 1 34
2017-11-07 19:00:00 7.1 6 Oeste 19 Noroeste 0 899.4 0.8 30
2017-11-07 18:00:00 8.5 5 Sur 21 Noroeste 0 899 0.5 20
2017-11-07 17:00:00 10.6 3 Norte 15 Sur 0 898.6 0 17
2017-11-07 16:00:00 12.8 10 Sur 15 Sur 0 898.6 -0.4 22
2017-11-07 15:00:00 12.3 10 Sur 22 Sur 0 898.5 -1.2 24
2017-11-07 14:00:00 11.6 11 Sur 21 Sudoeste 0 898.6 -1.3 29
2017-11-07 13:00:00 9.5 8 Sur 14 Sur 0 899 -1 26
2017-11-07 12:00:00 7 5 Sudeste 18 Sudoeste 0 899.7 -0.4 35
2017-11-07 11:00:00 4.9 6 Sur 10 Sur 0 899.9 0.8 33
2017-11-07 10:00:00 2.9 2 Sudoeste 14 Nordeste 0 900 1.2 37
2017-11-07 09:00:00 1.6 8 Nordeste 12 Nordeste 0 900.1 1.8 38
2017-11-07 08:00:00 -0.8 2 Norte 9 Oeste 0 899.1 0.4 37
2017-11-07 07:00:00 -0.1 4 Oeste 42 Nordeste 0 898.8 -0.2 32
2017-11-07 06:00:00 5.7 22 Norte 46 Nordeste 0 898.3 -0.4 15
2017-11-07 05:00:00 0.1 5 Sudeste 17 Sur 0 898.7 0.1 31
2017-11-07 04:00:00 2.6 6 Este 48 Norte 0 899 0.1 21
2017-11-07 03:00:00 4.9 19 Norte 44 Norte 0 898.7 -0.2 13
2017-11-07 02:00:00 2.6 8 Noroeste 33 Norte 0 898.6 -0.3 21
2017-11-07 01:00:00 2.9 11 Oeste 37 Sur 0 898.9 -0.1 21
2017-11-07 00:00:00 2.7 12 Oeste 40 Norte 0 898.9 0.1 30
2017-11-06 23:00:00 3.2 11 Sudoeste -- -- 0 898.9 -0.5 26
2017-11-06 22:00:00 4.1 -- -- -- -- 0 899 -0.7 23
2017-11-06 21:00:00 3.5 15 Norte -- -- 0 898.8 -0.7 33
2017-11-06 20:00:00 4.3 18 Sudeste 60 Nordeste 0 899.4 -0.3 30
2017-11-06 19:00:00 5.1 22 Norte 62 Norte 0 899.7 0.1 22
2017-11-06 18:00:00 4.3 19 Sudoeste 52 Nordeste 0 899.5 -0.1 40
2017-11-06 17:00:00 5.3 24 Norte -- -- 0 899.7 -0.6 34
2017-11-06 16:00:00 6.2 19 Este -- -- 0 899.6 -1.1 35
2017-11-06 15:00:00 6.3 -- -- -- -- 0 899.6 -1.4 37
2017-11-06 14:00:00 6.8 -- -- -- -- 0 900.3 -1.2 40
2017-11-06 13:00:00 6.9 -- -- -- -- 0 900.7 -0.6 39
2017-11-06 12:00:00 7.4 19 Este 60 Nordeste 0 901 -0.3 33
2017-11-06 11:00:00 7.6 13 Sudeste 38 Nordeste 0 901.5 0.1 41
2017-11-06 10:00:00 6.3 13 Sur 40 Norte 0 901.3 0 46
2017-11-06 09:00:00 4.9 13 Nordeste 41 Sur 0 901.3 -0.2 51
2017-11-06 08:00:00 3.7 9 Sudeste 38 Este 0 901.4 -0.3 56
2017-11-06 07:00:00 3.8 16 Norte 55 Norte 0 901.3 -0.3 57
2017-11-06 06:00:00 4.4 -- -- -- -- 0 901.5 -0.4 53
2017-11-06 05:00:00 4.1 -- -- -- -- 0 901.7 -0.2 56
2017-11-06 04:00:00 4.4 14 Noroeste 51 Norte 0 901.6 -1.2 56
2017-11-06 03:00:00 3.8 17 Noroeste 53 Norte 0 901.9 -0.7 63
2017-11-06 02:00:00 3.9 14 Norte 42 Norte 0.4 901.9 -0.6 64
2017-11-06 01:00:00 2.6 -- -- -- -- 0.8 902.8 0.6 81
2017-11-06 00:00:00 4 9 Noroeste 49 Norte 0 902.6 0.3 70
2017-11-05 23:00:00 4.3 13 Noroeste 48 Norte 0.4 902.5 0.2 69
2017-11-05 22:00:00 3.1 8 Noroeste 31 Noroeste 0.8 902.2 0.3 88
2017-11-05 21:00:00 3.6 8 Oeste 33 Noroeste 0.6 902.3 1.2 83
2017-11-05 20:00:00 4 6 Oeste 21 Noroeste 0 902.3 1.3 83
2017-11-05 19:00:00 5.5 10 Noroeste 22 Noroeste 0 901.9 0.7 70
2017-11-05 18:00:00 6.1 10 Noroeste 26 Noroeste 0 901.1 0.2 66
2017-11-05 17:00:00 7.7 10 Noroeste 45 Noroeste 0 901 -0.1 58
2017-11-05 16:00:00 9.1 10 Noroeste 39 Oeste 0 901.2 0 51
2017-11-05 15:00:00 10.3 9 Oeste 34 Nordeste 0 900.9 -0.7 46
2017-11-05 14:00:00 10.1 9 Nordeste 29 Nordeste 0 901.1 -0.1 49
2017-11-05 13:00:00 10 15 Nordeste 44 Norte 0 901.2 0.3 50
2017-11-05 12:00:00 9.5 22 Nordeste 43 Nordeste 0 901.6 1.1 47
2017-11-05 11:00:00 10.1 11 Noroeste 27 Sudoeste 0 901.2 0.9 49
2017-11-05 10:00:00 10.2 5 Sudeste -- -- 0 900.9 1.7 47
2017-11-05 09:00:00 8.7 6 Sudeste 39 Nordeste 0 900.5 2.1 52
2017-11-05 08:00:00 6.7 9 Nordeste 32 Noroeste 0 900.3 2.4 57
2017-11-05 07:00:00 6.6 11 Noroeste 36 Noroeste 0 899.2 1.8 70
2017-11-05 06:00:00 6.5 5 Oeste 18 Norte 0 898.4 1.4 78
2017-11-05 05:00:00 6.4 3 Norte 29 Oeste 0 897.9 1.1 86
2017-11-05 04:00:00 6.1 4 Norte 14 Nordeste 0 897.4 0.7 89
2017-11-05 03:00:00 6.2 4 Sur 11 Nordeste 0.2 897 0.7 90
2017-11-05 02:00:00 6.3 5 Noroeste 12 Norte 0 896.8 0.6 90
2017-11-05 01:00:00 7.3 9 Norte 17 Norte 0 896.7 0.5 88
2017-11-05 00:00:00 7.4 6 Nordeste 15 Norte 0 896.3 0.2 92
2017-11-04 23:00:00 7.4 2 Sur 10 Oeste 0 896.2 0.5 93
2017-11-04 22:00:00 7.8 5 Norte 10 Norte 0 896.2 0.7 93
2017-11-04 21:00:00 8 6 Oeste 11 Noroeste 0 896.1 1 93
2017-11-04 20:00:00 8.7 3 Noroeste 16 Norte 0.8 895.7 1 89
2017-11-04 19:00:00 9.2 12 Norte 16 Norte 1.8 895.5 1.1 87
2017-11-04 18:00:00 10.8 3 Sudoeste 9 Sudoeste 0 895.1 0.4 88
2017-11-04 17:00:00 11.7 4 Oeste 7 Sur 0 894.7 -0.4 81
2017-11-04 16:00:00 12.2 4 Sur 11 Sur 0 894.4 -1.2 77
2017-11-04 15:00:00 12.1 6 Sur 13 Sur 0 894.7 -1.3 80
2017-11-04 14:00:00 11.9 6 Sur 11 Sudoeste 0 895.1 -1.2 80
2017-11-04 13:00:00 11 4 Oeste 13 Sur 0.4 895.6 -0.8 84
2017-11-04 12:00:00 11 2 Sur 5 Norte 0 896 -0.1 89
2017-11-04 11:00:00 10.1 0 Calma 8 Norte 0.2 896.3 -0.1 86
2017-11-04 10:00:00 9.2 5 Este 14 Norte 0 896.4 1.3 92
2017-11-04 09:00:00 8.7 10 Nordeste 18 Nordeste 0.4 896.1 1.3 91
2017-11-04 08:00:00 8.4 6 Nordeste 37 Sudoeste 5.4 896.4 0.8 93
2017-11-04 07:00:00 9.7 2 Noroeste 17 Norte 0.2 895.1 -1 86
2017-11-04 06:00:00 9.7 10 Nordeste 21 Norte 0 894.8 -1.6 86
2017-11-04 05:00:00 9.5 11 Nordeste 24 Nordeste 0 895.6 -1.4 86
2017-11-04 04:00:00 9.8 12 Norte 22 Norte 0 896.1 -0.8 86
2017-11-04 03:00:00 9.7 13 Norte 40 Sudoeste 1.2 896.4 -1 86
2017-11-04 02:00:00 11.3 9 Sudoeste 47 Sudoeste 0 897 -0.6 72
2017-11-04 01:00:00 11 10 Norte 17 Norte 0 896.9 -0.9 68
2017-11-04 00:00:00 10.3 9 Norte 21 Nordeste 0 897.4 -0.2 70
2017-11-03 23:00:00 10.5 12 Norte 19 Norte 0 897.6 0.1 69
2017-11-03 22:00:00 10.5 3 Noroeste 15 Nordeste 0 897.8 0.3 71
2017-11-03 21:00:00 11.1 6 Norte 10 Norte 0 897.6 0.4 71
2017-11-03 20:00:00 12.1 3 Nordeste 9 Norte 0 897.5 0.5 70
2017-11-03 19:00:00 13 4 Nordeste 8 Norte 0 897.5 0.5 67
2017-11-03 18:00:00 13.9 4 Sudoeste 14 Sudeste 0 897.2 0.1 64
2017-11-03 17:00:00 15.1 8 Sudoeste 21 Sur 0 897 -0.4 61
2017-11-03 16:00:00 15.2 11 Sur 25 Sur 0 897 -0.9 56
2017-11-03 15:00:00 15.4 12 Sur 25 Sudeste 0 897.1 -1.4 57
2017-11-03 14:00:00 15.8 15 Sur -- -- 0 897.4 -1.3 53
2017-11-03 13:00:00 15.9 -- -- -- -- 0 897.9 -0.7 49
2017-11-03 12:00:00 16.5 15 Sur -- -- 0 898.5 0.4 44
2017-11-03 11:00:00 15.8 18 Sudeste 38 Sur 0 898.7 1 47
2017-11-03 10:00:00 14.7 9 Sur 15 Sur 0 898.6 0.8 53
2017-11-03 09:00:00 13.9 4 Nordeste 12 Este 0 898.1 0 58
2017-11-03 08:00:00 10.9 3 Norte 9 Norte 0 897.7 -0.7 67
2017-11-03 07:00:00 12.3 5 Nordeste 15 Norte 0 897.8 -1.3 61
2017-11-03 06:00:00 11.6 6 Norte 17 Norte 0 898.1 -1.7 64
2017-11-03 05:00:00 12.7 13 Norte 19 Norte 0 898.4 -2 61
2017-11-03 04:00:00 11.7 5 Norte 9 Nordeste 0 899.1 -1.7 65
2017-11-03 03:00:00 11.9 2 Norte 10 Nordeste 0 899.8 -1.2 65
2017-11-03 02:00:00 12.1 3 Norte 9 Norte 0 900.4 -1 65
2017-11-03 01:00:00 11.8 6 Norte 9 Norte 0 900.8 -0.7 66
2017-11-03 00:00:00 11.3 2 Noroeste 5 Nordeste 0 901 -0.5 70
2017-11-02 23:00:00 11.6 5 Noroeste 15 Norte 0 901.4 -0.1 67
2017-11-02 22:00:00 11.6 4 Nordeste 15 Norte 0 901.5 0.2 70
2017-11-02 21:00:00 12 10 Norte 13 Norte 0 901.5 0.4 71
2017-11-02 20:00:00 12.7 10 Norte 16 Nordeste 0 901.5 0.5 69
2017-11-02 19:00:00 12.5 3 Norte 6 Norte 0 901.3 0.2 71
2017-11-02 18:00:00 14.2 4 Oeste 10 Sudoeste 0 901.1 -0.3 64
2017-11-02 17:00:00 15.4 8 Sur 15 Sur 0 901 -1 59
2017-11-02 16:00:00 16.2 10 Sur 20 Sur 0 901.1 -1.3 54
2017-11-02 15:00:00 16.4 8 Sudeste 18 Sur 0 901.4 -1.8 53
2017-11-02 14:00:00 16.9 14 Sur 24 Sur 0 902 -1.3 50
2017-11-02 13:00:00 15.7 9 Sur 23 Sur 0 902.4 -1 53
2017-11-02 12:00:00 15.4 8 Sur 19 Sur 0 903.2 0.1 55
2017-11-02 11:00:00 14.2 4 Sudoeste 9 Sur 0 903.3 0.5 59
2017-11-02 10:00:00 13 5 Sudoeste 9 Sudoeste 0 903.4 0.8 60
2017-11-02 09:00:00 11.6 7 Norte 18 Nordeste 0 903.1 0.3 65
2017-11-02 08:00:00 10.4 11 Nordeste 21 Norte 0 902.8 -0.1 69
2017-11-02 07:00:00 10.7 14 Norte 21 Nordeste 0 902.6 -0.8 67
2017-11-02 06:00:00 10.8 12 Nordeste 19 Nordeste 0 902.8 -1 65
2017-11-02 05:00:00 10.9 11 Nordeste 19 Nordeste 0 902.9 -1 63
2017-11-02 04:00:00 11.2 11 Norte 19 Nordeste 0 903.4 -0.9 60
2017-11-02 03:00:00 10.1 12 Norte 23 Norte 0 903.8 -0.7 64
2017-11-02 02:00:00 9.8 11 Nordeste 21 Norte 0 903.9 -0.6 64
2017-11-02 01:00:00 9.6 12 Nordeste 20 Nordeste 0 904.3 -0.3 65
2017-11-02 00:00:00 10.2 9 Norte 20 Norte 0 904.5 0.1 66
2017-11-01 23:00:00 11.4 10 Norte 20 Nordeste 0 904.5 0.3 64
2017-11-01 22:00:00 11.2 10 Norte 17 Nordeste 0 904.6 0.6 67
2017-11-01 21:00:00 11.1 14 Norte 18 Nordeste 0 904.4 0.6 68
2017-11-01 20:00:00 11.9 10 Norte 17 Norte 0 904.2 0.4 65
2017-11-01 19:00:00 12.3 9 Norte 13 Norte 0 904 0.1 64
2017-11-01 18:00:00 13.4 2 Sudoeste 11 Sur 0 903.8 -0.1 60
2017-11-01 17:00:00 14.7 5 Sudoeste 10 Sudoeste 0 903.8 -0.6 54
2017-11-01 16:00:00 14.8 6 Sudoeste 22 Sur 0 903.9 -1 55
2017-11-01 15:00:00 17.3 12 Sur 22 Sur 0 903.9 -1.5 45
2017-11-01 14:00:00 16.8 14 Sur 26 Sur 0 904.4 -1.2 49
2017-11-01 13:00:00 16.5 14 Sur 24 Sur 0 904.9 -0.8 50
2017-11-01 12:00:00 15.6 12 Sur 21 Sur 0 905.4 -0.1 53
2017-11-01 11:00:00 14.1 6 Sur 12 Sur 0 905.6 0.7 58
2017-11-01 10:00:00 12.8 4 Noroeste 11 Oeste 0 905.7 1.3 62
2017-11-01 09:00:00 11.1 0 Calma 7 Norte 0 905.5 1.3 69
2017-11-01 08:00:00 10.1 0 Calma 12 Norte 0 904.9 0.7 71
2017-11-01 07:00:00 9.7 3 Nordeste 8 Norte 0 904.4 0 72
2017-11-01 06:00:00 10.1 4 Norte 6 Oeste 0 904.2 -0.6 70
2017-11-01 05:00:00 9.8 2 Noroeste 15 Norte 0 904.2 -0.7 71
2017-11-01 04:00:00 9.3 4 Este 19 Norte 0 904.4 -0.6 72
2017-11-01 03:00:00 9.1 9 Norte 20 Nordeste 0 904.8 -0.3 71
2017-11-01 02:00:00 10.1 13 Nordeste 19 Norte 0 904.9 -0.2 65
2017-11-01 01:00:00 9.1 11 Norte 22 Norte 0 905 0.1 68
2017-11-01 00:00:00 8.5 8 Norte 15 Nordeste 0 905.1 0.4 69
2017-10-31 23:00:00 9.1 8 Norte 19 Nordeste 0 905.1 0.7 65
2017-10-31 22:00:00 9.5 12 Norte 20 Norte 0 904.9 0.4 66
2017-10-31 21:00:00 9.5 5 Norte 23 Nordeste 0 904.7 0.6 72
2017-10-31 20:00:00 10.7 15 Nordeste 26 Nordeste 0 904.4 0.7 68
2017-10-31 19:00:00 10.3 12 Nordeste 21 Norte 0 904.5 1 70
2017-10-31 18:00:00 11.5 3 Nordeste 15 Sudoeste 0 904.1 0.5 65
2017-10-31 17:00:00 14.6 10 Sudoeste 17 Sudoeste 0 903.7 -0.1 53
2017-10-31 16:00:00 16.5 8 Sudoeste 18 Sur 0 903.5 -0.6 47
2017-10-31 15:00:00 16.8 8 Sudeste 19 Sur 0 903.6 -1 49
2017-10-31 14:00:00 17 9 Sur 19 Sudeste 0 903.8 -0.9 47
2017-10-31 13:00:00 16 9 Sudoeste 18 Sudoeste 0 904.1 -0.5 50
2017-10-31 12:00:00 15.7 8 Sur 14 Sur 0 904.6 0.2 51
2017-10-31 11:00:00 13.7 6 Sudeste 10 Sudeste 0 904.7 0.8 56
2017-10-31 10:00:00 11.1 4 Nordeste 13 Norte 0 904.6 1 61
2017-10-31 09:00:00 8.2 9 Nordeste 17 Norte 0 904.4 1.1 72
2017-10-31 08:00:00 5.2 3 Norte 10 Norte 0 903.9 0.7 83
2017-10-31 07:00:00 4.8 0 Calma 9 Nordeste 0 903.6 0.4 84
2017-10-31 06:00:00 5 2 Sudoeste 10 Norte 0 903.3 -0.1 83
2017-10-31 05:00:00 4.5 0 Calma 7 Norte 0 903.2 -0.3 84
2017-10-31 04:00:00 4.7 2 Sur 4 Oeste 0 903.2 -0.2 80
2017-10-31 03:00:00 4.2 0 Calma 5 Noroeste 0 903.4 0.2 79
2017-10-31 02:00:00 4.5 2 Norte 6 Norte 0 903.5 0.4 77
2017-10-31 01:00:00 5.3 2 Sur 6 Este 0 903.4 0.7 73
2017-10-31 00:00:00 5.2 2 Nordeste 8 Oeste 0 903.2 1.2 72
2017-10-30 23:00:00 6.1 3 Norte 12 Norte 0 903.1 1.6 71
2017-10-30 22:00:00 6.2 0 Calma 7 Norte 0 902.7 1.7 70
2017-10-30 21:00:00 6.7 2 Norte 11 Norte 0 902 1.7 66
2017-10-30 20:00:00 8.4 7 Norte 11 Norte 0 901.5 1.7 60
2017-10-30 19:00:00 8.9 3 Nordeste 10 Nordeste 0 901 1.4 62
2017-10-30 18:00:00 11.1 3 Sudeste 9 Sudeste 0 900.3 0.9 54
2017-10-30 17:00:00 14.8 2 Sudeste 22 Sudoeste 0 899.8 0.2 42
2017-10-30 16:00:00 16.9 7 Sudoeste 24 Sudoeste 0 899.6 -0.3 34
2017-10-30 15:00:00 18.6 10 Sur 19 Sur 0 899.4 -1 29
2017-10-30 14:00:00 19.1 8 Sur 34 Nordeste 0 899.6 -0.7 32
2017-10-30 13:00:00 18 10 Sudeste 18 Sur 0 899.9 -0.6 36
2017-10-30 12:00:00 16.9 8 Este -- -- 0 900.4 -0.2 39
2017-10-30 11:00:00 15.2 27 Norte 52 Norte 0 900.3 -0.1 39
2017-10-30 10:00:00 13.7 -- -- -- -- 0 900.5 0 46
2017-10-30 09:00:00 13.6 23 Norte 44 Norte 0 900.6 0 48
2017-10-30 08:00:00 9.9 12 Norte 35 Norte 0 900.4 -0.4 62
2017-10-30 07:00:00 7.4 5 Este 19 Sur 0 900.5 -0.4 75
2017-10-30 06:00:00 6.6 5 Oeste 14 Sudoeste 0 900.6 -0.7 77
2017-10-30 05:00:00 6.6 4 Oeste 11 Noroeste 0 900.8 -0.9 78
2017-10-30 04:00:00 6.9 4 Oeste 15 Nordeste 0 900.9 -1.1 78
2017-10-30 03:00:00 6.6 4 Sudoeste 15 Nordeste 0 901.3 -0.6 79
2017-10-30 02:00:00 7.3 7 Sudoeste 13 Oeste 0 901.7 -1 75
2017-10-30 01:00:00 8 9 Oeste 15 Noroeste 0 902 -1.2 71
2017-10-30 00:00:00 7 6 Sudoeste 20 Sudoeste 0 901.9 -1.5 72
2017-10-29 23:00:00 6.9 5 Noroeste 10 Norte 0 902.7 -0.7 71
2017-10-29 22:00:00 7.4 2 Norte 8 Oeste 0 903.2 0 68
2017-10-29 21:00:00 8.1 3 Sudoeste 6 Sudoeste 0 903.4 0.5 65
2017-10-29 20:00:00 9.2 2 Sudoeste 7 Oeste 0 903.4 0.4 62
2017-10-29 19:00:00 10.8 3 Sudeste 9 Oeste 0 903.2 -0.1 57
2017-10-29 18:00:00 13.5 8 Oeste 15 Oeste 0 902.9 -0.5 47
2017-10-29 17:00:00 16.6 4 Sur 17 Sudoeste 0 903 -1 37
2017-10-29 16:00:00 18.6 10 Sur 22 Sur 0 903.3 -1.5 32
2017-10-29 15:00:00 20 9 Sur 18 Sur 0 903.4 -2.2 24
2017-10-29 14:00:00 18.7 12 Sudeste 17 Sur 0 904 -1.9 26
2017-10-29 13:00:00 17.7 12 Sudeste 18 Sudeste 0 904.8 -1.2 29
2017-10-29 12:00:00 16.1 10 Sudeste 16 Sur 0 905.6 -0.2 32
2017-10-29 11:00:00 14.5 8 Sur 12 Sur 0 905.9 0.4 33
2017-10-29 10:00:00 12.1 5 Sudeste 9 Nordeste 0 906 0.8 43
2017-10-29 09:00:00 9.6 3 Sudeste 10 Norte 0 905.8 0.8 44
2017-10-29 08:00:00 6.4 3 Nordeste 17 Nordeste 0 905.5 0.4 48
2017-10-29 07:00:00 7.6 7 Norte 21 Nordeste 0 905.2 -0.1 42
2017-10-29 06:00:00 8.4 7 Noroeste 26 Nordeste 0 905 -0.6 35
2017-10-29 05:00:00 10.2 10 Nordeste 26 Nordeste 0 905.1 -1 26
2017-10-29 04:00:00 6.3 3 Sudeste 9 Nordeste 0 905.3 -1.2 53
2017-10-29 03:00:00 6.4 5 Norte 14 Nordeste 0 905.6 -1.3 62
2017-10-29 02:00:00 6.4 4 Norte 10 Nordeste 0 906.1 -0.9 66
2017-10-29 01:00:00 6.8 4 Norte 14 Norte 0 906.9 -0.3 66
2017-10-29 00:00:00 7.5 4 Noroeste 12 Nordeste 0 907 -0.3 65
2017-10-28 23:00:00 8.2 5 Norte 11 Nordeste 0 907.1 -0.1 62
2017-10-28 22:00:00 9 4 Norte 13 Nordeste 0 907.2 0.2 57
2017-10-28 21:00:00 9.9 7 Norte 12 Nordeste 0 907.3 0.6 57
2017-10-28 20:00:00 10.4 3 Norte 10 Nordeste 0 907.2 0.4 55
2017-10-28 19:00:00 13.4 4 Nordeste 9 Nordeste 0 907 0.2 46
2017-10-28 18:00:00 16.9 6 Sudoeste 25 Sudoeste 0 906.7 -0.6 36
2017-10-28 17:00:00 19.1 10 Sudoeste 23 Sudoeste 0 906.8 -1.1 29
2017-10-28 16:00:00 20.1 9 Sudoeste 20 Sudoeste 0 906.8 -1.5 27
2017-10-28 15:00:00 19.8 9 Sudoeste 21 Sudoeste 0 907.3 -1.2 31
2017-10-28 14:00:00 18.9 9 Sur 17 Sur 0 907.9 -0.8 37
2017-10-28 13:00:00 18 8 Sur 16 Sur 0 908.3 -0.2 37
2017-10-28 12:00:00 16.5 6 Sur 13 Sur 0 908.5 0.3 42
2017-10-28 11:00:00 13.9 4 Este 11 Este 0 908.7 0.9 58
2017-10-28 10:00:00 11.5 3 Noroeste 13 Noroeste 0 908.5 0.3 63
2017-10-28 09:00:00 7.9 5 Oeste 22 Sudoeste 0 908.2 -0.4 73
2017-10-28 08:00:00 9.2 9 Sur 16 Oeste 0 907.8 -0.5 66
2017-10-28 07:00:00 9.2 5 Sudoeste 13 Sudoeste 0 908.2 -0.5 69
2017-10-28 06:00:00 9.3 5 Sudoeste 35 Nordeste 0 908.6 -0.2 70
2017-10-28 05:00:00 10.8 7 Sur 38 Nordeste 0 908.3 -1 65
2017-10-28 04:00:00 11.8 9 Sudeste 41 Norte 0 908.7 -0.6 60
2017-10-28 03:00:00 13.4 18 Nordeste -- -- 0 908.8 -0.6 53
2017-10-28 02:00:00 13.7 23 Nordeste -- -- 0 909.3 -0.2 56
2017-10-28 01:00:00 14.1 24 Norte -- -- 0 909.3 -0.1 55
2017-10-28 00:00:00 14.5 32 Nordeste -- -- 0 909.4 0.2 53
2017-10-27 23:00:00 14.9 -- -- -- -- 0 909.5 0.2 47
2017-10-27 22:00:00 15 13 Norte 40 Norte 0 909.4 0.4 44
2017-10-27 21:00:00 12.9 5 Sudoeste 16 Noroeste 0 909.2 0.2 51
2017-10-27 20:00:00 13.3 5 Sudoeste 10 Sudeste 0 909.3 0.6 53
2017-10-27 19:00:00 14.9 2 Nordeste 27 Norte 0 909 0.4 47
2017-10-27 18:00:00 18.5 9 Noroeste 46 Norte 0 909 0.4 35
2017-10-27 17:00:00 18.9 -- -- -- -- 0 908.7 -0.6 34
2017-10-27 16:00:00 21.4 -- -- -- -- 0 908.6 -1.5 22
2017-10-27 15:00:00 23.4 22 Nordeste 46 Nordeste 0 908.6 -1.8 12
2017-10-27 14:00:00 22.5 9 Sudeste 16 Sur 0 909.3 -1.3 31
2017-10-27 13:00:00 20.9 4 Sudeste 13 Este 0 910.1 -0.5 38
2017-10-27 12:00:00 19.2 5 Sur 10 Sudeste 0 910.4 -0.1 38
2017-10-27 11:00:00 17 3 Este 7 Este 0 910.6 0.2 43
2017-10-27 10:00:00 13.7 6 Nordeste 11 Nordeste 0 910.6 -0.1 52
2017-10-27 09:00:00 10.6 2 Norte 6 Nordeste 0 910.5 -0.3 60
2017-10-27 08:00:00 10.8 2 Norte 6 Nordeste 0 910.4 -0.7 55
2017-10-27 07:00:00 11.2 2 Oeste 10 Nordeste 0 910.7 -0.8 50
2017-10-27 06:00:00 11.2 2 Norte 8 Nordeste 0 910.8 -1.1 50
2017-10-27 05:00:00 11.5 2 Este 7 Nordeste 0 911.1 -1.2 46
2017-10-27 04:00:00 12.5 4 Noroeste 12 Norte 0 911.5 -1 42
2017-10-27 03:00:00 12.4 0 Calma 12 Nordeste 0 911.9 -0.7 48
2017-10-27 02:00:00 12.2 3 Noroeste 6 Nordeste 0 912.3 -0.1 58
2017-10-27 01:00:00 12.9 3 Norte 8 Norte 0 912.5 0.5 57
2017-10-27 00:00:00 13.5 4 Nordeste 13 Norte 0 912.6 0.7 58
2017-10-26 23:00:00 14.5 6 Norte 15 Nordeste 0 912.4 1 55
2017-10-26 22:00:00 15.2 8 Norte 18 Nordeste 0 912 1.2 55
2017-10-26 21:00:00 15.8 8 Norte 18 Nordeste 0 911.9 1.5 52
2017-10-26 20:00:00 17.2 9 Norte 16 Nordeste 0 911.4 1.1 48
2017-10-26 19:00:00 19.5 6 Norte 15 Sudoeste 0 910.8 0.6 40
2017-10-26 18:00:00 22.8 10 Sudoeste 17 Sudoeste 0 910.4 -0.1 30
2017-10-26 17:00:00 24.8 11 Sudoeste 19 Sudoeste 0 910.3 -0.6 26
2017-10-26 16:00:00 25.7 9 Sudoeste 20 Sudoeste 0 910.2 -0.9 22
2017-10-26 15:00:00 25.3 10 Sudoeste 22 Sudoeste 0 910.5 -0.7 23
2017-10-26 14:00:00 24.5 13 Sudoeste 20 Sudoeste 0 910.9 -0.2 27
2017-10-26 13:00:00 24.5 8 Sur 13 Sudeste 0 911.1 0.3 28
2017-10-26 12:00:00 22.2 5 Sudeste 15 Nordeste 0 911.2 0.9 31
2017-10-26 11:00:00 19.3 11 Nordeste 19 Nordeste 0 911.1 1.1 37
2017-10-26 10:00:00 17.4 14 Nordeste 22 Norte 0 910.8 0.9 39
2017-10-26 09:00:00 15.3 17 Norte 24 Norte 0 910.3 0.7 43
2017-10-26 08:00:00 15 16 Norte 22 Nordeste 0 910 0.2 45
2017-10-26 07:00:00 14.9 12 Norte 24 Nordeste 0 909.9 -0.1 45
2017-10-26 06:00:00 15.1 19 Nordeste 28 Nordeste 0 909.6 -0.4 45
2017-10-26 05:00:00 15.1 18 Nordeste 24 Norte 0 909.8 -0.2 47
2017-10-26 04:00:00 14.5 10 Norte 21 Nordeste 0 910 0.2 52
2017-10-26 03:00:00 15.1 11 Norte 21 Nordeste 0 910 0.2 47
2017-10-26 02:00:00 15.5 10 Norte 24 Norte 0 910 0.2 45
2017-10-26 01:00:00 15.8 16 Nordeste 26 Norte 0 909.8 0.6 47
2017-10-26 00:00:00 16.3 15 Nordeste 23 Norte 0 909.8 0.7 47